• Join FlightAware (Why Join?)
  • Login
  • US Flag 
04:14PM EST


 

Airport Tracker/Info


-or-


 

Live Flight TrackerFlight Track Log ✈ N365SC ✈ 22-Oct-2013 ✈ KBFI - KSUN

Flight Track Log - Related Links

Times and Time Zones

All times are in EDT time to prevent confusion due to time zone crossing. See the N365SC flight status page for this flight to view local times or setup timezone preferences in your user account.

Time Position Orientation Groundspeed Altitude Reporting Facility
EDT Latitude Longitude Course Direction KTS MPH feet Rate Location/Type
02:56PM 47.5083 -122.2831 146° Southeast 216 249 900  Level Seattle Center
02:56PM 47.4636 -122.2389 146° Southeast 264 304 2,100 1,380 Climbing Seattle Center
02:57PM 47.4069 -122.1819 146° Southeast 244 281 3,300 1,080 Climbing Seattle Center
02:58PM 47.3997 -122.1728 139° Southeast 243 280 3,500 1,560 Climbing Seattle Center
02:59PM 47.3275 -122.1417 164° South 261 300 5,300 2,340 Climbing Seattle Center
03:00PM 47.2494 -122.1242 171° South 281 323 8,400 3,240 Climbing Seattle Center
03:01PM 47.1667 -122.1056 171° South 299 344 12,000 3,180 Climbing Seattle Center
03:02PM 47.0867 -122.0733 165° South 308 354 14,900 1,860 Climbing Seattle Center
03:03PM 46.9939 -121.9950 150° Southeast 365 420 15,900 660 Climbing Seattle Center
03:04PM 46.9381 -121.8561 120° Southeast 397 457 16,300 420 Climbing Seattle Center
03:05PM 46.9128 -121.7181 105° East 353 406 16,800 300 Climbing Seattle Center
03:06PM 46.8486 -121.6428 141° Southeast 311 358 17,000 60 Climbing Seattle Center
03:07PM 46.7703 -121.7067 209° Southwest 313 360 17,000 300 Level Seattle Center
03:08PM 46.7067 -121.7739 216° Southwest 350 403 17,700 780 Climbing Seattle Center
03:09PM 46.6211 -121.6981 149° Southeast 382 440 18,600 1,260 Climbing Seattle Center
03:10PM 46.6206 -121.5178 90° East 412 474 20,400 1,980 Climbing Seattle Center
03:11PM 46.6264 -121.3531 87° East 408 470 22,700 2,160 Climbing Seattle Center
03:12PM 46.5772 -121.2036 116° Southeast 416 479 24,900 2,040 Climbing Seattle Center
03:13PM 46.5192 -121.0528 119° Southeast 426 490 26,900 1,920 Climbing Seattle Center
03:14PM 46.4583 -120.9022 120° Southeast 431 496 28,900 1,740 Climbing Seattle Center
03:15PM 46.3975 -120.7525 120° Southeast 433 498 30,500 1,380 Climbing Seattle Center
03:16PM 46.3367 -120.5975 120° Southeast 440 506 31,800 1,140 Climbing Seattle Center
03:17PM 46.2736 -120.4422 120° Southeast 447 514 32,900 1,200 Climbing Seattle Center
03:18PM 46.1972 -120.2517 120° Southeast 455 524 34,300 1,140 Climbing Seattle Center
03:19PM 46.1331 -120.0925 120° Southeast 458 527 35,300 1,080 Climbing Seattle Center
03:20PM 46.0678 -119.9344 121° Southeast 459 528 36,600 1,200 Climbing Seattle Center
03:21PM 46.0044 -119.7811 121° Southeast 450 518 37,800 960 Climbing Seattle Center
03:22PM 45.9422 -119.6306 121° Southeast 441 507 38,600 540 Climbing Seattle Center
03:23PM 45.8778 -119.4783 121° Southeast 444 511 39,000 180 Climbing Seattle Center
03:24PM 45.8114 -119.3172 121° Southeast 463 533 39,000  Level Seattle Center
03:25PM 45.7431 -119.1578 122° Southeast 468 539 39,000  Level Seattle Center
03:26PM 45.6750 -118.9961 121° Southeast 471 542 39,000  Level Seattle Center
03:27PM 45.6061 -118.8344 121° Southeast 473 544 39,000  Level Seattle Center
03:28PM 45.5372 -118.6739 121° Southeast 473 544 39,000  Level Seattle Center
03:29PM 45.4678 -118.5139 122° Southeast 475 547 39,000  Level Seattle Center
03:31PM 45.3637 -118.3293 129° Southeast  Level FlightAware Approximate
03:38PM 44.9027 -117.3463 120° Southeast  Level FlightAware Approximate
03:39PM 44.8422 -117.2022 121° Southeast  Level FlightAware Approximate
03:40PM 44.7814 -117.0584 121° Southeast  Level FlightAware Approximate
03:40PM 44.6403 -116.7522 122° Southeast 474 545 39,000  Level Salt Lake Center
03:41PM 44.7205 -116.9149 121° Southeast  Level FlightAware Approximate
03:41PM 44.5644 -116.6019 125° Southeast 475 547 39,000  Level Salt Lake Center
03:42PM 44.6494 -116.7818 119° Southeast  Level FlightAware Approximate
03:43PM 44.5913 -116.6363 119° Southeast  Level FlightAware Approximate
03:43PM 44.4822 -116.4404 125° Southeast  Level FlightAware Approximate
03:44PM 44.5313 -116.4926 123° Southeast  Level FlightAware Approximate
03:45PM 44.4668 -116.3529 123° Southeast  Level FlightAware Approximate
03:46PM 44.4028 -116.2128 122° Southeast  Level FlightAware Approximate
03:47PM 44.1678 -115.8219 123° Southeast 487 560 35,700  Level Salt Lake Center
03:48PM 44.0894 -115.6706 126° Southeast 485 558 33,200 -2,460 Descending Salt Lake Center
03:49PM 44.0125 -115.5236 126° Southeast 474 545 30,700 -2,760 Descending Salt Lake Center
03:50PM 43.9852 -115.5012 126° Southeast  Level FlightAware Approximate
03:50PM 43.9222 -115.3517 126° Southeast 463 533 27,600  Level Salt Lake Center
03:51PM 43.9171 -115.3647 123° Southeast  Level FlightAware Approximate
03:51PM 43.8467 -115.2092 126° Southeast 460 529 25,000  Level Salt Lake Center
03:52PM 43.8526 -115.2249 123° Southeast  Level FlightAware Approximate
03:52PM 43.7719 -115.0661 126° Southeast 459 528 22,500  Level Salt Lake Center
03:53PM 43.6969 -114.9269 127° Southeast 444 511 20,000 -2,400 Descending Salt Lake Center
03:54PM 43.6250 -114.7906 126° Southeast 426 490 17,700 -1,980 Descending Salt Lake Center
03:55PM 43.5606 -114.6703 126° Southeast 383 441 16,000 -1,680 Descending Salt Lake Center